Flugplatz Erfurt

Bericht für EDDE

vom 22.06. um 23:50 UTC

Wind 8 kt aus 260°

Sichtweite 10 km oder mehr

aufgebrochene Bewölkung in 2600 ft

Temperatur 8.0°C

Taupunkt 8.0°C

Luftfeuchtigkeit 100%

Luftdruck 1024 hPa

EDDE 222350Z 26008KT 9999 BKN026 08/08 Q1024

Prognose für EDDE

vom 22.06. um 23:00 UTC

Zwischen 00:00 UTC und 07:00 UTC

Wind 10 kt aus 270°

Sichtweite 10 km oder mehr

aufgelockert bewölkt in 4000 ft


Zwischen 07:00 und 09:00 UTC übergehend zu

Wind 15 kt aus 280° in Böen 25 kt

Sichtweite 10 km oder mehr

aufgelockert bewölkt in 4000 ft


Zwischen 15:00 und 18:00 UTC übergehend zu

Wind 10 kt aus 280°

Sichtweite 10 km oder mehr

aufgelockert bewölkt in 4000 ft

TAF EDDE 222300Z 2300/2324 27010KT 9999 SCT040 BECMG 2307/2309 28015G25KT BECMG 2315/2318 28010KT
Impressum